Limon, CO

4:11 PM MDT on July 25, 2014 (GMT -0600)
Ellicott (KABH) Elev 6037 ft | 38.76 °N, 104.31 °W | Change Station

Current weather conditions updated 8 minutes ago

Partly Cloudy
Partly Cloudy
88 °F
Feels Like 88 °F
N
5
Wind Variable Wind from SE

Tomorrow is forecast to be nearly the same temperature as today.

Today
High -- | Low -- °F
--% Chance of Precip.
Yesterday
High -- | Low -- °F
Precip. -- in
5:48 AM 8:13 PM
Waning Crescent, 1% visible
Pressure 30.13 in
Visibility 10.0 miles
Clouds Few 8000 ft
Dew Point 41 °F
Humidity 19%
Rainfall 0.00 in
Snow Depth Not available.
UV 7 out of 12
Pollen 6.80 out of 12
Air Quality Not available.
Flu Activity Not available.
SPECI KABH 252203Z AUTO 13004KT 10SM FEW080 31/05 A3013 RMK AO2 TSE2157 PNO $

More Conditions Fewer Conditions

Pressure 30.13 in
Visibility 10.0 miles
Clouds Few 8000 ft
Dew Point 41 °F
Humidity 19%
Rainfall 0.00 in
Snow Depth Not available.
UV 7 out of 12
Pollen 6.80 out of 12
Air Quality Not available.
Flu Activity Not available.
SPECI KABH 252203Z AUTO 13004KT 10SM FEW080 31/05 A3013 RMK AO2 TSE2157 PNO $

More Conditions Fewer Conditions

10-Day Weather Forecast

Almanac

Astronomy

Jul. 25, 2014 Rise Set
Actual Time 5:48 AM MDT 8:13 PM MDT
Civil Twilight 5:18 AM MDT 8:43 PM MDT
Nautical Twilight 4:40 AM MDT 9:21 PM MDT
Astronomical Twilight 3:58 AM MDT 10:02 PM MDT
Moon 4:49 AM MDT 7:12 PM MDT
Length of Visible Light 15h 25m
Length of Day
14h 24m
Tomorrow will be 1m 43s shorter.
Waning Crescent, 1% of the Moon is Illuminated
Today
Waning Crescent
Jul 26
New
Aug 3
First Quarter
Aug 10
Full
Aug 17
Last Quarter

Today's Extremes

State Highs State Lows

Community

WunderPhotos

Upload Photos

1,737,415 photos uploaded!

Nearby

Snow Depth

Station Depth Elevation
Niwot 0 in 9910 ft
Jackwhacker Gulch 0 in 10960 ft
Berthoud Summit 0 in 11300 ft
Grizzly Peak 5 in 11100 ft
Rough And Tumble 5 in 10360 ft

Earthquake Activity

City Distance Mag. Time & Date
No recent earthquake activity has been reported nearby.
Minimum magnitude displayed is 2.5.

Coastal Water Temperatures

Place Temperature
No Stations Reporting

Nearby Weather Stations

Station Location Temp. Heat Index Dew Point Humidity Wind Precip. Elev Updated Type
Limon, CO, Limon, CO 92.1 °F 88 °F 44 °F 19% ESE  at  6.0 mph 0.00 in / hr 5361 ft 4:07 PM MDT Normal
Limon, Limon, CO 95.9 °F 91 °F -6 °F 2% North  at  0.0 mph 0.00 in / hr 5394 ft 4:10 PM MDT Normal
MesoWest LIMON , Limon, CO 102 °F 95 °F - - North  at  - 0.00 in / hr 5298 ft 2:10 PM MDT MADIS
Hugo, Hugo, CO 96.5 °F 92 °F 40 °F 14% ESE  at  9.0 mph 0.00 in / hr 5089 ft 4:11 PM MDT Rapid Fire
MEREO WFR Simla 1, Simla, CO 90.1 °F 86 °F 18 °F 7% SE  at  0.0 mph 0.00 in / hr 6014 ft 4:11 PM MDT Rapid Fire
MesoWest CLIFRD , Boyero, CO 94 °F 90 °F - - North  at  - 0.00 in / hr 4854 ft 2:35 PM MDT MADIS
Higby Estates, Monument, CO 61.5 °F - 32 °F 33% NW  at  7.8 mph 0.00 in / hr 9245 ft 4:10 PM MDT Rapid Fire

Show More Stations Show Fewer Stations